createdAt,value
2022-12-26T00:02:03.623Z,8.99
2022-12-26T00:04:51.927Z,8.75
2022-12-26T00:07:20.719Z,8.27
2022-12-26T00:09:48.302Z,8.37
2022-12-26T00:12:15.819Z,8.61
2022-12-26T00:14:43.326Z,8.68
2022-12-26T00:17:10.897Z,9.00
2022-12-26T00:19:38.564Z,9.22
2022-12-26T00:22:06.067Z,9.15
2022-12-26T00:24:34.957Z,9.52
2022-12-26T00:27:02.470Z,9.71
2022-12-26T00:29:29.954Z,9.81
2022-12-26T00:31:57.486Z,9.79
2022-12-26T00:34:25.007Z,9.74
2022-12-26T00:36:52.509Z,9.70
2022-12-26T00:39:19.987Z,9.81
2022-12-26T00:41:48.815Z,9.85
2022-12-26T00:44:16.361Z,10.04
2022-12-26T00:46:43.876Z,10.28
2022-12-26T00:49:11.453Z,10.36
2022-12-26T00:51:38.963Z,10.39
2022-12-26T00:54:06.550Z,10.33
2022-12-26T00:56:34.040Z,9.96
2022-12-26T00:59:02.926Z,9.69
2022-12-26T01:01:31.418Z,9.44
2022-12-26T01:03:59.651Z,9.62
2022-12-26T01:06:27.315Z,9.79
2022-12-26T01:08:55.797Z,9.98
2022-12-26T01:11:37.335Z,10.01
2022-12-26T01:14:06.548Z,9.97
2022-12-26T01:16:34.145Z,9.79
2022-12-26T01:19:01.949Z,9.84
2022-12-26T01:21:29.483Z,10.16
2022-12-26T01:23:57.221Z,9.85
2022-12-26T01:26:24.763Z,9.65
2022-12-26T01:28:53.979Z,9.28
2022-12-26T01:31:23.849Z,9.44
2022-12-26T01:33:51.407Z,9.08
2022-12-26T01:36:19.391Z,8.92
2022-12-26T01:38:47.142Z,8.73
2022-12-26T01:41:19.191Z,8.76
2022-12-26T01:43:54.857Z,8.91
2022-12-26T01:46:28.767Z,9.21
2022-12-26T01:48:59.432Z,9.30
2022-12-26T01:51:29.595Z,9.49
2022-12-26T01:54:41.289Z,9.39
2022-12-26T01:56:49.367Z,9.28
2022-12-26T01:59:21.810Z,9.27
2022-12-26T02:01:54.130Z,9.37
2022-12-26T02:04:44.078Z,9.87
2022-12-26T02:07:11.724Z,9.98
2022-12-26T02:09:39.626Z,9.73
2022-12-26T02:12:35.917Z,9.66
2022-12-26T02:15:05.899Z,9.67
2022-12-26T02:17:34.906Z,9.44
2022-12-26T02:20:14.031Z,9.56
2022-12-26T02:23:20.216Z,9.69
2022-12-26T02:26:33.992Z,9.75
2022-12-26T02:29:25.879Z,9.63
2022-12-26T02:32:07.788Z,9.59
2022-12-26T02:34:45.557Z,9.44
2022-12-26T02:37:25.610Z,9.45
2022-12-26T02:40:21.202Z,9.24
2022-12-26T02:42:59.235Z,9.58
2022-12-26T02:45:50.691Z,9.42
2022-12-26T02:48:28.103Z,9.71
2022-12-26T02:51:23.983Z,9.87
2022-12-26T02:54:18.812Z,9.76
2022-12-26T02:57:18.403Z,9.85
2022-12-26T03:00:13.281Z,9.88
2022-12-26T03:03:03.985Z,9.95
2022-12-26T03:05:54.158Z,9.28
2022-12-26T03:08:46.608Z,9.05
2022-12-26T03:11:32.084Z,9.14
2022-12-26T03:14:07.970Z,8.97
2022-12-26T03:16:53.154Z,8.94
2022-12-26T03:19:23.027Z,9.07
2022-12-26T03:21:52.802Z,9.20
2022-12-26T03:24:22.602Z,9.12
2022-12-26T03:26:54.190Z,8.97
2022-12-26T03:29:41.587Z,8.73
2022-12-26T03:32:11.439Z,9.01
2022-12-26T03:34:41.361Z,9.48
2022-12-26T03:37:49.307Z,9.88
2022-12-26T03:40:43.309Z,9.60
2022-12-26T03:43:39.280Z,9.40
2022-12-26T03:46:35.611Z,9.57
2022-12-26T03:49:27.569Z,9.76
2022-12-26T03:52:18.307Z,9.68
2022-12-26T03:55:14.234Z,9.80
2022-12-26T03:58:06.326Z,9.87
2022-12-26T04:00:53.358Z,10.01
2022-12-26T04:03:42.346Z,10.01
2022-12-26T04:06:35.763Z,10.07
2022-12-26T04:09:26.734Z,9.96
2022-12-26T04:12:16.477Z,9.62
2022-12-26T04:15:06.219Z,9.35
2022-12-26T04:18:08.121Z,9.13
2022-12-26T04:20:40.894Z,8.84
2022-12-26T04:23:37.630Z,9.02
2022-12-26T04:26:27.283Z,9.37
2022-12-26T04:29:13.797Z,9.50
2022-12-26T04:32:03.908Z,9.52
2022-12-26T04:34:58.717Z,9.56
2022-12-26T04:37:47.302Z,9.61
2022-12-26T04:40:37.686Z,9.41
2022-12-26T04:43:49.388Z,9.70
2022-12-26T04:46:14.918Z,9.81
2022-12-26T04:49:02.487Z,10.06
2022-12-26T04:51:30.034Z,9.98
2022-12-26T04:53:57.545Z,9.54
2022-12-26T04:56:25.203Z,9.54
2022-12-26T04:58:53.221Z,9.84
2022-12-26T05:01:40.328Z,10.15
2022-12-26T05:04:32.567Z,10.22
2022-12-26T05:07:19.013Z,10.18
2022-12-26T05:09:50.119Z,10.08
2022-12-26T05:12:17.702Z,10.44
2022-12-26T05:14:45.200Z,10.51
2022-12-26T05:17:32.476Z,10.63
2022-12-26T05:20:17.902Z,10.74
2022-12-26T05:23:04.681Z,10.96
2022-12-26T05:25:53.207Z,10.89
2022-12-26T05:28:42.398Z,10.67
2022-12-26T05:31:10.454Z,11.02
2022-12-26T05:33:57.232Z,10.91
2022-12-26T05:36:28.733Z,11.52
2022-12-26T05:38:57.010Z,11.23
2022-12-26T05:41:25.085Z,11.20
2022-12-26T05:43:52.750Z,11.23
2022-12-26T05:46:20.283Z,11.36
2022-12-26T05:48:49.129Z,11.22
2022-12-26T05:51:16.624Z,10.67
2022-12-26T05:53:44.135Z,10.70
2022-12-26T05:56:13.581Z,10.57
2022-12-26T05:58:41.820Z,10.68
2022-12-26T06:01:11.424Z,10.63
2022-12-26T06:03:40.013Z,10.72
2022-12-26T06:06:08.946Z,10.77
2022-12-26T06:08:37.359Z,10.87
2022-12-26T06:11:06.381Z,11.06
2022-12-26T06:13:33.909Z,11.00
2022-12-26T06:16:05.947Z,11.04
2022-12-26T06:18:33.667Z,11.27
2022-12-26T06:21:03.988Z,11.13
2022-12-26T06:23:32.808Z,11.19
2022-12-26T06:26:00.325Z,11.14
2022-12-26T06:28:28.245Z,10.99
2022-12-26T06:30:55.945Z,11.08
2022-12-26T06:33:23.421Z,11.12
2022-12-26T06:35:50.891Z,11.23
2022-12-26T06:38:18.381Z,11.10
2022-12-26T06:40:47.221Z,11.11
2022-12-26T06:43:14.723Z,11.18
2022-12-26T06:45:42.195Z,10.92
2022-12-26T06:48:09.695Z,11.07
2022-12-26T06:50:37.311Z,11.37
2022-12-26T06:53:04.817Z,11.44
2022-12-26T06:55:32.370Z,11.11
2022-12-26T06:58:01.249Z,11.30
2022-12-26T07:00:30.214Z,11.10
2022-12-26T07:02:57.908Z,11.02
2022-12-26T07:05:25.502Z,11.00
2022-12-26T07:07:53.405Z,10.88
2022-12-26T07:10:21.590Z,11.08
2022-12-26T07:12:49.655Z,11.23
2022-12-26T07:15:18.563Z,10.63
2022-12-26T07:17:46.069Z,10.84
2022-12-26T07:20:13.863Z,11.23
2022-12-26T07:22:41.417Z,11.41
2022-12-26T07:25:09.832Z,11.72
2022-12-26T07:27:37.291Z,11.75
2022-12-26T07:30:05.407Z,11.88
2022-12-26T07:32:34.267Z,12.04
2022-12-26T07:35:01.836Z,12.18
2022-12-26T07:37:29.317Z,12.32
2022-12-26T07:39:59.137Z,11.94
2022-12-26T07:42:27.135Z,11.52
2022-12-26T07:44:54.664Z,11.00
2022-12-26T07:47:22.281Z,10.86
2022-12-26T07:49:51.127Z,10.85
2022-12-26T07:52:19.851Z,10.62
2022-12-26T07:54:47.368Z,10.78
2022-12-26T07:57:47.033Z,10.86
2022-12-26T08:00:02.354Z,10.71
2022-12-26T08:02:30.042Z,10.84
2022-12-26T08:04:58.957Z,10.68
2022-12-26T08:07:26.555Z,10.62
2022-12-26T08:09:54.098Z,10.68
2022-12-26T08:12:24.369Z,10.91
2022-12-26T08:14:51.981Z,10.90
2022-12-26T08:17:19.794Z,10.98
2022-12-26T08:19:47.288Z,10.64
2022-12-26T08:22:16.361Z,10.76
2022-12-26T08:24:43.854Z,11.01
2022-12-26T08:27:12.036Z,10.90
2022-12-26T08:29:39.540Z,11.10
2022-12-26T08:32:07.025Z,11.81
2022-12-26T08:34:35.360Z,12.06
2022-12-26T08:37:03.054Z,12.23
2022-12-26T08:39:31.911Z,12.08
2022-12-26T08:41:59.430Z,12.39
2022-12-26T08:44:28.335Z,11.97
2022-12-26T08:46:56.249Z,12.26
2022-12-26T08:49:23.770Z,11.95
2022-12-26T08:51:51.619Z,11.55
2022-12-26T08:54:19.165Z,11.60
2022-12-26T08:56:47.985Z,11.35
2022-12-26T08:59:15.678Z,11.53
2022-12-26T09:01:43.336Z,11.35
2022-12-26T09:04:11.121Z,11.65
2022-12-26T09:06:40.335Z,12.01
2022-12-26T09:09:14.048Z,11.92
2022-12-26T09:11:42.501Z,12.12
2022-12-26T09:14:12.147Z,12.73
2022-12-26T09:16:49.337Z,12.19
2022-12-26T09:19:18.596Z,12.42
2022-12-26T09:21:47.261Z,12.64
2022-12-26T09:24:16.399Z,11.78
2022-12-26T09:26:44.608Z,11.81
2022-12-26T09:29:14.443Z,11.69
2022-12-26T09:31:42.153Z,11.45
2022-12-26T09:34:09.797Z,11.05
2022-12-26T09:36:39.369Z,10.97
2022-12-26T09:39:07.885Z,10.81
2022-12-26T09:42:02.764Z,10.54
2022-12-26T09:44:44.626Z,10.70
2022-12-26T09:47:25.166Z,10.65
2022-12-26T09:49:58.863Z,10.51
2022-12-26T09:52:38.030Z,10.50
2022-12-26T09:55:17.633Z,10.24
2022-12-26T09:57:50.425Z,10.11
2022-12-26T10:00:22.215Z,10.12
2022-12-26T10:02:53.609Z,10.24
2022-12-26T10:05:22.920Z,10.53
2022-12-26T10:07:56.250Z,10.18
2022-12-26T10:10:29.721Z,10.21
2022-12-26T10:13:01.578Z,10.31
2022-12-26T10:15:40.616Z,11.02
2022-12-26T10:18:24.534Z,10.97
2022-12-26T10:21:08.484Z,10.96
2022-12-26T10:23:39.664Z,10.75
2022-12-26T10:26:13.623Z,11.03
2022-12-26T10:28:47.133Z,10.80
2022-12-26T10:31:21.998Z,10.91
2022-12-26T10:33:54.150Z,11.14
2022-12-26T10:36:33.417Z,11.17
2022-12-26T10:39:03.762Z,10.87
2022-12-26T10:41:37.587Z,10.79
2022-12-26T10:44:05.347Z,10.91
2022-12-26T10:46:54.659Z,11.16
2022-12-26T10:49:25.459Z,11.13
2022-12-26T10:51:55.280Z,11.18
2022-12-26T10:54:22.794Z,11.26
2022-12-26T10:56:52.683Z,11.42
2022-12-26T10:59:23.225Z,11.69
2022-12-26T11:01:52.784Z,11.21
2022-12-26T11:05:10.493Z,11.04
2022-12-26T11:07:13.004Z,10.81
2022-12-26T11:09:42.603Z,10.59
2022-12-26T11:12:21.659Z,10.64
2022-12-26T11:14:49.769Z,10.77
2022-12-26T11:17:28.749Z,10.87
2022-12-26T11:20:24.309Z,10.74
2022-12-26T11:22:52.472Z,10.75
2022-12-26T11:25:22.978Z,10.51
2022-12-26T11:27:53.100Z,10.65
2022-12-26T11:30:27.225Z,10.35
2022-12-26T11:33:14.443Z,10.26
2022-12-26T11:35:51.150Z,10.24
2022-12-26T11:38:44.143Z,10.15
2022-12-26T11:41:36.146Z,10.16
2022-12-26T11:44:12.792Z,10.19
2022-12-26T11:46:43.286Z,10.41
2022-12-26T11:49:20.572Z,10.64
2022-12-26T11:51:54.159Z,10.84
2022-12-26T11:54:30.151Z,10.60
2022-12-26T11:57:20.231Z,10.56
2022-12-26T11:59:48.785Z,10.47
2022-12-26T12:02:26.577Z,10.36
2022-12-26T12:04:58.640Z,9.98
2022-12-26T12:07:39.252Z,9.72
2022-12-26T12:10:32.336Z,9.53
2022-12-26T12:13:08.929Z,9.43
2022-12-26T12:15:45.213Z,9.44
2022-12-26T12:18:20.416Z,9.45
2022-12-26T12:21:00.751Z,9.52
2022-12-26T12:23:44.262Z,9.82
2022-12-26T12:26:16.213Z,9.76
2022-12-26T12:29:04.939Z,9.99
2022-12-26T12:31:42.793Z,9.96
2022-12-26T12:34:23.930Z,9.96
2022-12-26T12:37:12.440Z,10.43
2022-12-26T12:39:49.650Z,10.64
2022-12-26T12:42:36.233Z,10.77
2022-12-26T12:45:27.747Z,10.97
2022-12-26T12:48:10.286Z,11.05
2022-12-26T12:50:44.490Z,10.79
2022-12-26T12:53:24.036Z,10.81
2022-12-26T12:56:05.803Z,10.79
2022-12-26T12:58:41.208Z,10.65
2022-12-26T13:01:13.471Z,10.86
2022-12-26T13:03:48.795Z,10.45
2022-12-26T13:06:19.971Z,10.66
2022-12-26T13:08:53.988Z,10.82
2022-12-26T13:11:26.399Z,10.82
2022-12-26T13:13:57.317Z,10.69
2022-12-26T13:16:28.472Z,10.80
2022-12-26T13:19:00.738Z,10.46
2022-12-26T13:21:32.125Z,10.52
2022-12-26T13:24:23.722Z,10.62
2022-12-26T13:26:58.473Z,10.62
2022-12-26T13:29:36.485Z,10.39
2022-12-26T13:32:06.619Z,9.83
2022-12-26T13:34:34.441Z,9.75
2022-12-26T13:37:02.246Z,9.59
2022-12-26T13:39:41.296Z,10.15
2022-12-26T13:42:54.756Z,10.34
2022-12-26T13:45:48.512Z,10.45
2022-12-26T13:48:47.775Z,10.35
2022-12-26T13:51:44.156Z,10.63
2022-12-26T13:54:14.219Z,10.47
2022-12-26T13:57:27.955Z,10.47
2022-12-26T14:00:18.130Z,10.55
2022-12-26T14:03:20.236Z,10.46
2022-12-26T14:06:08.366Z,10.34
2022-12-26T14:08:52.960Z,10.86
2022-12-26T14:11:38.342Z,10.82
2022-12-26T14:14:18.888Z,10.79
2022-12-26T14:16:52.535Z,10.77
2022-12-26T14:19:36.232Z,10.78
2022-12-26T14:22:12.577Z,10.95
2022-12-26T14:24:54.229Z,11.13
2022-12-26T14:27:37.960Z,10.73
2022-12-26T14:30:22.707Z,10.79
2022-12-26T14:33:03.340Z,10.99
2022-12-26T14:35:38.027Z,11.03
2022-12-26T14:38:29.753Z,11.05
2022-12-26T14:41:04.622Z,10.63
2022-12-26T14:43:38.284Z,10.59
2022-12-26T14:46:46.182Z,10.38
2022-12-26T14:49:24.448Z,10.28
2022-12-26T14:51:52.546Z,10.71
2022-12-26T14:54:50.808Z,10.29
2022-12-26T14:57:50.319Z,10.54
2022-12-26T15:00:35.122Z,10.24
2022-12-26T15:03:24.488Z,10.41
2022-12-26T15:05:52.449Z,10.36
2022-12-26T15:08:39.265Z,10.80
2022-12-26T15:11:26.208Z,10.44
2022-12-26T15:14:21.855Z,10.24
2022-12-26T15:17:06.210Z,10.16
2022-12-26T15:20:11.616Z,10.02
2022-12-26T15:22:58.719Z,10.29
2022-12-26T15:26:05.063Z,10.45
2022-12-26T15:28:53.696Z,10.31
2022-12-26T15:31:56.745Z,9.83
2022-12-26T15:34:39.247Z,10.02
2022-12-26T15:37:15.854Z,9.98
2022-12-26T15:39:51.922Z,9.88
2022-12-26T15:42:31.348Z,10.53
2022-12-26T15:45:21.737Z,10.36
2022-12-26T15:48:02.596Z,10.00
2022-12-26T15:50:36.624Z,9.74
2022-12-26T15:53:21.655Z,9.94
2022-12-26T15:56:11.950Z,10.49
2022-12-26T15:58:55.125Z,10.15
2022-12-26T16:01:44.927Z,9.79
2022-12-26T16:04:22.019Z,10.10
2022-12-26T16:07:21.165Z,10.25
2022-12-26T16:09:53.393Z,10.15
2022-12-26T16:12:24.911Z,10.09
2022-12-26T16:15:02.723Z,10.13
2022-12-26T16:17:30.693Z,10.30
2022-12-26T16:19:59.479Z,10.33
2022-12-26T16:22:43.546Z,10.29
2022-12-26T16:25:15.313Z,10.36
2022-12-26T16:27:44.018Z,10.45
2022-12-26T16:30:17.114Z,10.69
2022-12-26T16:32:45.715Z,10.86
2022-12-26T16:35:21.523Z,10.59
2022-12-26T16:37:51.160Z,10.68
2022-12-26T16:40:28.596Z,11.27
2022-12-26T16:42:59.483Z,11.65
2022-12-26T16:45:28.553Z,11.03
2022-12-26T16:47:56.701Z,10.58
2022-12-26T16:50:26.066Z,10.45
2022-12-26T16:53:04.788Z,10.76
2022-12-26T16:55:41.929Z,10.83
2022-12-26T16:58:20.616Z,10.67
2022-12-26T17:01:08.207Z,10.15
2022-12-26T17:03:41.681Z,10.67
2022-12-26T17:06:13.484Z,10.45
2022-12-26T17:08:44.062Z,10.53
2022-12-26T17:11:13.463Z,10.61
2022-12-26T17:13:41.937Z,10.44
2022-12-26T17:16:11.176Z,10.81
2022-12-26T17:18:50.478Z,10.89
2022-12-26T17:21:28.889Z,11.30
2022-12-26T17:24:22.622Z,10.65
2022-12-26T17:27:10.685Z,10.82
2022-12-26T17:29:51.068Z,10.68
2022-12-26T17:32:27.632Z,10.76
2022-12-26T17:34:55.506Z,10.48
2022-12-26T17:37:26.251Z,10.24
2022-12-26T17:40:02.555Z,10.22
2022-12-26T17:42:41.011Z,10.29
2022-12-26T17:45:15.226Z,10.55
2022-12-26T17:47:42.709Z,10.69
2022-12-26T17:50:10.505Z,10.80
2022-12-26T17:52:38.325Z,10.58
2022-12-26T17:55:12.347Z,10.99
2022-12-26T17:57:41.172Z,10.54
2022-12-26T18:00:16.479Z,10.76
2022-12-26T18:02:44.039Z,10.72
2022-12-26T18:05:12.036Z,10.25
2022-12-26T18:07:39.637Z,9.88
2022-12-26T18:10:08.170Z,10.13
2022-12-26T18:12:35.674Z,10.47
2022-12-26T18:15:04.921Z,10.32
2022-12-26T18:17:34.225Z,10.22
2022-12-26T18:20:02.058Z,10.38
2022-12-26T18:22:29.624Z,10.73
2022-12-26T18:24:57.160Z,10.79
2022-12-26T18:27:30.039Z,11.38
2022-12-26T18:29:57.891Z,11.06
2022-12-26T18:32:29.676Z,10.88
2022-12-26T18:34:57.260Z,10.51
2022-12-26T18:37:26.551Z,10.63
2022-12-26T18:39:54.833Z,10.77
2022-12-26T18:42:22.411Z,10.36
2022-12-26T18:44:49.898Z,10.63
2022-12-26T18:47:20.580Z,10.38
2022-12-26T18:49:50.063Z,10.35
2022-12-26T18:52:18.308Z,10.23
2022-12-26T18:54:46.446Z,10.03
2022-12-26T18:57:19.949Z,9.80
2022-12-26T18:59:48.304Z,9.66
2022-12-26T19:02:18.085Z,9.87
2022-12-26T19:04:46.468Z,9.90
2022-12-26T19:07:16.144Z,9.75
2022-12-26T19:09:45.132Z,9.99
2022-12-26T19:12:12.674Z,9.76
2022-12-26T19:14:41.004Z,9.65
2022-12-26T19:17:08.480Z,9.57
2022-12-26T19:19:36.035Z,9.55
2022-12-26T19:22:04.026Z,9.48
2022-12-26T19:24:33.944Z,9.55
2022-12-26T19:27:01.938Z,9.40
2022-12-26T19:29:29.645Z,9.53
2022-12-26T19:31:57.419Z,9.41
2022-12-26T19:34:25.031Z,9.42
2022-12-26T19:36:52.488Z,9.57
2022-12-26T19:39:20.069Z,9.72
2022-12-26T19:41:48.955Z,9.50
2022-12-26T19:44:16.764Z,9.54
2022-12-26T19:46:44.240Z,9.42
2022-12-26T19:49:11.693Z,9.52
2022-12-26T19:51:39.206Z,9.78
2022-12-26T19:54:06.900Z,9.65
2022-12-26T19:56:34.776Z,9.38
2022-12-26T19:59:03.676Z,9.25
2022-12-26T20:01:32.911Z,9.13
2022-12-26T20:04:02.087Z,9.10
2022-12-26T20:06:31.291Z,8.99
2022-12-26T20:09:00.462Z,9.12
2022-12-26T20:11:30.733Z,9.33
2022-12-26T20:13:59.990Z,9.42
2022-12-26T20:17:03.805Z,9.22
2022-12-26T20:19:17.109Z,9.29
2022-12-26T20:21:44.768Z,9.23
2022-12-26T20:24:13.019Z,9.27
2022-12-26T20:26:41.712Z,9.25
2022-12-26T20:29:09.919Z,9.11
2022-12-26T20:31:39.509Z,8.88
2022-12-26T20:34:07.450Z,8.41
2022-12-26T20:36:37.300Z,8.21
2022-12-26T20:39:06.824Z,8.07
2022-12-26T20:41:34.765Z,8.10
2022-12-26T20:44:02.455Z,7.90
2022-12-26T20:46:32.921Z,7.82
2022-12-26T20:49:05.138Z,7.75
2022-12-26T20:51:38.263Z,7.63
2022-12-26T20:54:07.475Z,7.52
2022-12-26T20:56:35.459Z,7.47
2022-12-26T20:59:03.184Z,7.46
2022-12-26T21:01:31.292Z,7.41
2022-12-26T21:03:59.023Z,7.47
2022-12-26T21:06:29.994Z,7.49
2022-12-26T21:08:58.032Z,7.66
2022-12-26T21:11:28.083Z,7.43
2022-12-26T21:13:59.125Z,7.64
2022-12-26T21:16:29.731Z,7.50
2022-12-26T21:18:58.210Z,7.49
2022-12-26T21:21:29.178Z,7.56
2022-12-26T21:23:57.970Z,7.62
2022-12-26T21:26:26.429Z,7.50
2022-12-26T21:28:58.433Z,8.07
2022-12-26T21:31:26.378Z,8.26
2022-12-26T21:33:56.417Z,8.10
2022-12-26T21:36:24.246Z,7.88
2022-12-26T21:38:53.680Z,8.00
2022-12-26T21:41:22.142Z,7.91
2022-12-26T21:43:49.989Z,8.26
2022-12-26T21:46:20.883Z,8.23
2022-12-26T21:48:49.873Z,8.69
2022-12-26T21:51:19.132Z,8.65
2022-12-26T21:53:47.593Z,8.40
2022-12-26T21:56:17.269Z,8.11
2022-12-26T21:59:03.122Z,8.30
2022-12-26T22:01:31.625Z,8.55
2022-12-26T22:04:16.797Z,8.54
2022-12-26T22:06:44.330Z,8.53
2022-12-26T22:09:12.782Z,8.53
2022-12-26T22:11:59.375Z,8.45
2022-12-26T22:14:26.887Z,8.44
2022-12-26T22:16:55.184Z,8.33
2022-12-26T22:19:24.391Z,8.39
2022-12-26T22:21:51.909Z,7.91
2022-12-26T22:24:21.282Z,7.86
2022-12-26T22:26:50.163Z,7.81
2022-12-26T22:29:17.812Z,7.72
2022-12-26T22:31:45.424Z,7.49
2022-12-26T22:34:16.284Z,7.39
2022-12-26T22:36:44.426Z,7.66
2022-12-26T22:39:16.139Z,7.50
2022-12-26T22:41:43.745Z,7.53
2022-12-26T22:44:12.619Z,7.51
2022-12-26T22:46:40.536Z,7.69
2022-12-26T22:49:08.186Z,7.47
2022-12-26T22:51:35.711Z,7.73
2022-12-26T22:54:03.493Z,7.54
2022-12-26T22:56:31.383Z,7.37
2022-12-26T22:59:00.920Z,7.19
2022-12-26T23:01:30.208Z,7.61
2022-12-26T23:03:58.322Z,7.38
2022-12-26T23:06:28.773Z,7.72
2022-12-26T23:08:58.924Z,7.61
2022-12-26T23:11:34.443Z,7.50
2022-12-26T23:14:04.736Z,7.29
2022-12-26T23:16:39.852Z,7.28
2022-12-26T23:19:32.082Z,7.27
2022-12-26T23:22:01.939Z,7.32
2022-12-26T23:24:32.091Z,7.46
2022-12-26T23:27:17.443Z,7.41
2022-12-26T23:30:11.049Z,7.20
2022-12-26T23:32:41.139Z,7.24
2022-12-26T23:35:10.364Z,7.12
2022-12-26T23:37:38.890Z,7.13
2022-12-26T23:40:08.108Z,6.97
2022-12-26T23:42:35.646Z,7.05
2022-12-26T23:45:03.303Z,7.04
2022-12-26T23:47:30.789Z,7.18
2022-12-26T23:49:59.591Z,7.14
2022-12-26T23:52:30.493Z,7.12
2022-12-26T23:54:58.261Z,7.22
2022-12-26T23:57:26.219Z,7.19
2022-12-26T23:59:54.087Z,7.36
